createdAt,value
2022-09-16T00:01:40.296Z,89.20
2022-09-16T00:04:09.989Z,89.20
2022-09-16T00:06:38.320Z,89.10
2022-09-16T00:09:06.618Z,89.30
2022-09-16T00:11:35.488Z,89.40
2022-09-16T00:14:04.898Z,89.50
2022-09-16T00:16:33.411Z,89.60
2022-09-16T00:19:03.222Z,89.70
2022-09-16T00:21:33.090Z,89.80
2022-09-16T00:24:01.443Z,89.80
2022-09-16T00:26:29.934Z,90.10
2022-09-16T00:28:58.154Z,90.00
2022-09-16T00:31:26.644Z,90.10
2022-09-16T00:33:54.972Z,90.20
2022-09-16T00:36:23.309Z,89.90
2022-09-16T00:38:55.370Z,90.00
2022-09-16T00:41:27.838Z,89.90
2022-09-16T00:43:59.782Z,89.90
2022-09-16T00:46:38.081Z,89.70
2022-09-16T00:49:13.773Z,89.90
2022-09-16T00:51:43.466Z,89.90
2022-09-16T00:54:13.541Z,90.10
2022-09-16T00:56:46.281Z,90.20
2022-09-16T00:59:19.840Z,90.20
2022-09-16T01:01:49.652Z,90.10
2022-09-16T01:04:22.813Z,90.10
2022-09-16T01:06:52.460Z,90.10
2022-09-16T01:09:25.741Z,90.00
2022-09-16T01:11:54.039Z,90.10
2022-09-16T01:14:50.339Z,90.20
2022-09-16T01:17:29.544Z,90.00
2022-09-16T01:20:47.560Z,90.20
2022-09-16T01:23:59.277Z,90.10
2022-09-16T01:27:12.653Z,90.10
2022-09-16T01:30:10.804Z,90.10
2022-09-16T01:32:54.547Z,90.20
2022-09-16T01:35:34.084Z,90.20
2022-09-16T01:38:14.315Z,90.20
2022-09-16T01:40:51.004Z,90.30
2022-09-16T01:43:25.807Z,90.30
2022-09-16T01:45:58.532Z,90.40
2022-09-16T01:48:36.906Z,90.40
2022-09-16T01:51:09.576Z,90.40
2022-09-16T01:53:40.666Z,90.20
2022-09-16T01:56:11.265Z,90.30
2022-09-16T01:58:47.453Z,90.10
2022-09-16T02:01:24.530Z,90.20
2022-09-16T02:04:01.457Z,90.20
2022-09-16T02:06:32.350Z,90.20
2022-09-16T02:09:05.265Z,90.10
2022-09-16T02:11:34.323Z,90.10
2022-09-16T02:14:06.789Z,90.00
2022-09-16T02:16:41.274Z,90.10
2022-09-16T02:19:15.707Z,90.10
2022-09-16T02:21:46.051Z,90.10
2022-09-16T02:24:19.396Z,90.10
2022-09-16T02:26:53.544Z,90.30
2022-09-16T02:29:27.306Z,90.20
2022-09-16T02:32:01.525Z,90.20
2022-09-16T02:34:37.582Z,90.40
2022-09-16T02:37:11.158Z,90.60
2022-09-16T02:39:44.589Z,90.40
2022-09-16T02:42:12.898Z,90.50
2022-09-16T02:44:41.657Z,90.40
2022-09-16T02:47:14.396Z,90.40
2022-09-16T02:49:54.067Z,90.40
2022-09-16T02:52:31.304Z,90.40
2022-09-16T02:55:11.692Z,90.40
2022-09-16T02:57:40.095Z,90.50
2022-09-16T03:00:10.217Z,90.60
2022-09-16T03:02:38.526Z,90.40
2022-09-16T03:05:09.904Z,90.40
2022-09-16T03:07:39.196Z,90.40
2022-09-16T03:10:08.471Z,90.30
2022-09-16T03:12:59.376Z,90.50
2022-09-16T03:15:41.255Z,90.30
2022-09-16T03:18:58.436Z,90.40
2022-09-16T03:21:37.444Z,90.20
2022-09-16T03:24:14.689Z,90.30
2022-09-16T03:26:48.965Z,90.30
2022-09-16T03:29:24.612Z,90.20
2022-09-16T03:32:02.280Z,90.10
2022-09-16T03:34:35.530Z,90.20
2022-09-16T03:37:11.014Z,90.20
2022-09-16T03:39:40.426Z,90.20
2022-09-16T03:42:11.393Z,90.20
2022-09-16T03:44:41.255Z,90.20
2022-09-16T03:47:10.539Z,90.10
2022-09-16T03:49:39.035Z,90.20
2022-09-16T03:52:08.797Z,90.20
2022-09-16T03:54:38.114Z,90.10
2022-09-16T03:57:07.170Z,90.10
2022-09-16T03:59:35.406Z,90.20
2022-09-16T04:02:03.851Z,90.10
2022-09-16T04:04:32.133Z,90.20
2022-09-16T04:07:00.391Z,90.20
2022-09-16T04:09:30.045Z,90.10
2022-09-16T04:11:58.256Z,90.00
2022-09-16T04:14:26.537Z,90.10
2022-09-16T04:16:56.191Z,90.20
2022-09-16T04:19:24.805Z,90.00
2022-09-16T04:21:53.005Z,90.20
2022-09-16T04:24:21.410Z,89.90
2022-09-16T04:26:51.085Z,89.80
2022-09-16T04:29:20.643Z,89.90
2022-09-16T04:31:48.977Z,90.00
2022-09-16T04:34:17.330Z,89.90
2022-09-16T04:36:45.528Z,90.10
2022-09-16T04:39:13.915Z,89.70
2022-09-16T04:41:42.147Z,90.10
2022-09-16T04:44:12.598Z,89.90
2022-09-16T04:46:40.998Z,89.80
2022-09-16T04:49:09.270Z,89.90
2022-09-16T04:51:37.534Z,89.70
2022-09-16T04:54:06.351Z,89.80
2022-09-16T04:56:34.623Z,89.40
2022-09-16T04:59:06.255Z,89.40
2022-09-16T05:01:38.859Z,89.30
2022-09-16T05:04:09.033Z,89.30
2022-09-16T05:06:40.525Z,89.10
2022-09-16T05:09:09.742Z,89.10
2022-09-16T05:11:40.650Z,89.10
2022-09-16T05:14:15.858Z,89.00
2022-09-16T05:16:46.133Z,89.10
2022-09-16T05:19:16.165Z,89.00
2022-09-16T05:21:44.694Z,89.00
2022-09-16T05:24:15.185Z,89.10
2022-09-16T05:26:44.560Z,88.70
2022-09-16T05:29:15.590Z,89.00
2022-09-16T05:31:47.591Z,88.90
2022-09-16T05:34:18.885Z,88.90
2022-09-16T05:36:48.006Z,89.10
2022-09-16T05:39:23.141Z,88.90
2022-09-16T05:41:55.977Z,88.90
2022-09-16T05:44:24.625Z,89.10
2022-09-16T05:46:54.511Z,88.90
2022-09-16T05:49:23.660Z,88.80
2022-09-16T05:51:53.374Z,88.90
2022-09-16T05:54:25.105Z,89.00
2022-09-16T05:56:53.637Z,89.00
2022-09-16T05:59:23.530Z,89.10
2022-09-16T06:01:53.356Z,89.20
2022-09-16T06:04:21.658Z,89.10
2022-09-16T06:06:50.117Z,89.20
2022-09-16T06:09:21.306Z,89.10
2022-09-16T06:11:54.492Z,88.90
2022-09-16T06:14:25.325Z,88.90
2022-09-16T06:16:54.920Z,88.60
2022-09-16T06:19:23.363Z,88.60
2022-09-16T06:21:51.741Z,88.30
2022-09-16T06:24:21.820Z,88.40
2022-09-16T06:26:50.602Z,88.70
2022-09-16T06:29:19.129Z,88.30
2022-09-16T06:31:47.372Z,88.00
2022-09-16T06:34:19.475Z,88.00
2022-09-16T06:36:48.740Z,87.80
2022-09-16T06:39:18.242Z,87.60
2022-09-16T06:41:46.751Z,87.70
2022-09-16T06:44:15.137Z,87.60
2022-09-16T06:46:44.230Z,87.60
2022-09-16T06:49:13.223Z,87.70
2022-09-16T06:51:43.552Z,87.50
2022-09-16T06:54:12.776Z,87.50
2022-09-16T06:56:41.599Z,87.70
2022-09-16T06:59:11.101Z,87.10
2022-09-16T07:01:39.540Z,86.40
2022-09-16T07:04:13.269Z,86.30
2022-09-16T07:07:09.361Z,85.70
2022-09-16T07:09:32.551Z,85.00
2022-09-16T07:12:01.234Z,84.80
2022-09-16T07:14:32.646Z,83.80
2022-09-16T07:17:01.668Z,84.40
2022-09-16T07:19:30.686Z,84.30
2022-09-16T07:22:00.306Z,83.50
2022-09-16T07:24:28.941Z,83.50
2022-09-16T07:26:57.277Z,83.00
2022-09-16T07:29:25.587Z,83.10
2022-09-16T07:31:53.810Z,82.90
2022-09-16T07:34:22.409Z,83.10
2022-09-16T07:36:51.357Z,83.60
2022-09-16T07:39:21.460Z,83.10
2022-09-16T07:41:49.793Z,83.30
2022-09-16T07:44:21.005Z,83.80
2022-09-16T07:46:51.335Z,84.30
2022-09-16T07:49:19.957Z,83.80
2022-09-16T07:51:48.584Z,83.70
2022-09-16T07:54:21.501Z,83.00
2022-09-16T07:56:50.152Z,82.60
2022-09-16T07:59:20.264Z,83.00
2022-09-16T08:01:50.441Z,82.80
2022-09-16T08:04:20.551Z,81.70
2022-09-16T08:06:49.769Z,81.10
2022-09-16T08:12:10.848Z,80.00
2022-09-16T08:14:39.448Z,80.70
2022-09-16T08:17:08.090Z,80.00
2022-09-16T08:19:38.415Z,79.20
2022-09-16T08:22:06.980Z,78.30
2022-09-16T08:24:35.690Z,78.30
2022-09-16T08:27:04.217Z,78.10
2022-09-16T08:29:33.873Z,78.00
2022-09-16T08:32:02.552Z,77.50
2022-09-16T08:34:30.888Z,77.30
2022-09-16T08:36:59.142Z,75.40
2022-09-16T08:39:27.381Z,75.70
2022-09-16T08:42:31.273Z,75.80
2022-09-16T08:45:21.851Z,75.80
2022-09-16T08:48:08.203Z,74.70
2022-09-16T08:50:41.272Z,72.70
2022-09-16T08:53:18.810Z,72.70
2022-09-16T08:55:50.392Z,72.50
2022-09-16T08:58:21.981Z,72.10
2022-09-16T09:00:58.543Z,72.20
2022-09-16T09:03:38.678Z,71.80
2022-09-16T09:06:18.694Z,70.80
2022-09-16T09:08:52.914Z,71.80
2022-09-16T09:11:32.552Z,70.30
2022-09-16T09:14:21.993Z,70.60
2022-09-16T09:17:00.319Z,71.20
2022-09-16T09:19:42.981Z,70.20
2022-09-16T09:22:29.061Z,71.20
2022-09-16T09:25:22.818Z,73.00
2022-09-16T09:28:04.084Z,71.70
2022-09-16T09:30:34.853Z,71.30
2022-09-16T09:33:44.994Z,70.90
2022-09-16T09:36:52.395Z,72.60
2022-09-16T09:39:41.413Z,70.90
2022-09-16T09:42:17.765Z,70.40
2022-09-16T09:45:01.327Z,69.30
2022-09-16T09:47:37.128Z,71.10
2022-09-16T09:50:23.505Z,70.80
2022-09-16T09:53:00.975Z,69.40
2022-09-16T09:55:34.801Z,70.50
2022-09-16T09:58:28.353Z,69.70
2022-09-16T10:00:57.792Z,67.70
2022-09-16T10:03:27.739Z,66.60
2022-09-16T10:05:57.485Z,66.80
2022-09-16T10:08:30.006Z,66.50
2022-09-16T10:11:01.633Z,65.70
2022-09-16T10:13:31.951Z,68.20
2022-09-16T10:16:13.875Z,68.70
2022-09-16T10:18:42.251Z,66.70
2022-09-16T10:21:14.394Z,68.80
2022-09-16T10:23:43.054Z,64.60
2022-09-16T10:26:23.543Z,65.10
2022-09-16T10:29:00.553Z,65.20
2022-09-16T10:31:35.749Z,64.20
2022-09-16T10:34:06.470Z,65.80
2022-09-16T10:36:37.201Z,66.10
2022-09-16T10:39:06.421Z,66.80
2022-09-16T10:41:42.526Z,66.40
2022-09-16T10:44:18.525Z,66.30
2022-09-16T10:47:00.215Z,67.70
2022-09-16T10:49:38.700Z,68.20
2022-09-16T10:52:24.310Z,68.90
2022-09-16T10:54:52.960Z,69.50
2022-09-16T10:57:30.540Z,71.60
2022-09-16T11:00:09.307Z,76.00
2022-09-16T11:03:46.945Z,77.10
2022-09-16T11:06:37.525Z,79.50
2022-09-16T11:09:16.083Z,78.50
2022-09-16T11:12:00.939Z,79.30
2022-09-16T11:14:46.069Z,79.90
2022-09-16T11:17:31.895Z,80.00
2022-09-16T11:20:44.216Z,79.50
2022-09-16T11:23:28.497Z,78.40
2022-09-16T11:26:03.048Z,80.30
2022-09-16T11:28:55.459Z,81.80
2022-09-16T11:31:40.061Z,82.00
2022-09-16T11:34:32.757Z,81.30
2022-09-16T11:37:14.041Z,81.10
2022-09-16T11:40:09.545Z,81.10
2022-09-16T11:42:44.627Z,81.40
2022-09-16T11:45:45.494Z,81.50
2022-09-16T11:48:35.990Z,82.20
2022-09-16T11:51:15.715Z,81.50
2022-09-16T11:54:13.973Z,81.00
2022-09-16T11:56:47.780Z,82.50
2022-09-16T11:59:25.940Z,82.20
2022-09-16T12:02:02.366Z,82.30
2022-09-16T12:04:37.794Z,80.90
2022-09-16T12:07:17.006Z,80.60
2022-09-16T12:09:52.697Z,81.20
2022-09-16T12:12:25.306Z,81.50
2022-09-16T12:15:05.333Z,81.90
2022-09-16T12:17:37.391Z,81.20
2022-09-16T12:20:16.054Z,81.80
2022-09-16T12:22:50.537Z,81.80
2022-09-16T12:25:24.038Z,81.20
2022-09-16T12:28:01.933Z,81.00
2022-09-16T12:30:37.296Z,81.40
2022-09-16T12:33:12.965Z,80.90
2022-09-16T12:35:45.872Z,80.50
2022-09-16T12:38:20.777Z,80.00
2022-09-16T12:41:18.151Z,80.50
2022-09-16T12:44:37.846Z,80.20
2022-09-16T12:47:49.746Z,80.80
2022-09-16T12:50:58.096Z,80.60
2022-09-16T12:54:14.055Z,79.10
2022-09-16T12:56:59.941Z,79.10
2022-09-16T13:00:07.447Z,80.10
2022-09-16T13:02:40.728Z,79.00
2022-09-16T13:05:23.093Z,81.20
2022-09-16T13:07:55.652Z,81.20
2022-09-16T13:10:53.862Z,82.00
2022-09-16T13:13:34.366Z,82.70
2022-09-16T13:16:06.606Z,83.40
2022-09-16T13:18:45.670Z,84.90
2022-09-16T13:21:24.245Z,84.80
2022-09-16T13:24:03.045Z,84.60
2022-09-16T13:26:41.717Z,84.10
2022-09-16T13:29:44.247Z,84.30
2022-09-16T13:32:30.487Z,84.90
2022-09-16T13:35:24.524Z,84.80
2022-09-16T13:37:55.530Z,84.50
2022-09-16T13:40:27.452Z,84.70
2022-09-16T13:43:14.598Z,84.30
2022-09-16T13:45:44.860Z,84.40
2022-09-16T13:48:17.676Z,84.60
2022-09-16T13:51:02.408Z,84.20
2022-09-16T13:53:33.393Z,83.90
2022-09-16T13:56:07.624Z,82.90
2022-09-16T13:58:51.848Z,82.40
2022-09-16T14:01:28.419Z,82.50
2022-09-16T14:04:14.115Z,80.10
2022-09-16T14:07:09.941Z,81.30
2022-09-16T14:09:52.817Z,81.70
2022-09-16T14:12:34.878Z,81.20
2022-09-16T14:15:03.981Z,81.60
2022-09-16T14:17:40.241Z,81.30
2022-09-16T14:20:17.358Z,82.30
2022-09-16T14:22:47.047Z,81.80
2022-09-16T14:25:31.062Z,82.40
2022-09-16T14:28:19.194Z,81.70
2022-09-16T14:30:54.327Z,81.80
2022-09-16T14:33:28.678Z,81.60
2022-09-16T14:35:57.722Z,81.80
2022-09-16T14:38:52.427Z,80.50
2022-09-16T14:41:29.411Z,80.70
2022-09-16T14:44:07.560Z,80.90
2022-09-16T14:46:42.895Z,79.50
2022-09-16T14:49:12.966Z,80.30
2022-09-16T14:51:46.673Z,80.40
2022-09-16T14:54:21.830Z,79.90
2022-09-16T14:56:58.068Z,79.60
2022-09-16T14:59:29.699Z,79.50
2022-09-16T15:02:03.393Z,80.00
2022-09-16T15:04:36.821Z,80.00
2022-09-16T15:07:12.553Z,80.40
2022-09-16T15:09:48.719Z,80.80
2022-09-16T15:12:26.712Z,80.40
2022-09-16T15:14:55.560Z,80.10
2022-09-16T15:17:28.258Z,80.70
2022-09-16T15:20:00.188Z,79.90
2022-09-16T15:22:29.247Z,79.30
2022-09-16T15:25:00.371Z,77.60
2022-09-16T15:27:32.363Z,77.80
2022-09-16T15:30:05.655Z,78.00
2022-09-16T15:32:45.697Z,77.70
2022-09-16T15:35:25.787Z,78.00
2022-09-16T15:37:55.471Z,77.60
2022-09-16T15:40:33.806Z,78.30
2022-09-16T15:43:19.087Z,78.20
2022-09-16T15:46:00.204Z,77.10
2022-09-16T15:48:32.468Z,77.70
2022-09-16T15:51:07.191Z,77.60
2022-09-16T15:53:47.822Z,77.30
2022-09-16T15:56:29.923Z,77.30
2022-09-16T15:59:02.476Z,77.80
2022-09-16T16:01:43.643Z,77.70
2022-09-16T16:04:14.494Z,77.60
2022-09-16T16:06:53.575Z,77.20
2022-09-16T16:09:39.207Z,76.60
2022-09-16T16:12:12.324Z,76.70
2022-09-16T16:14:41.984Z,77.10
2022-09-16T16:17:14.595Z,78.00
2022-09-16T16:19:43.918Z,78.20
2022-09-16T16:22:12.934Z,78.40
2022-09-16T16:24:41.650Z,78.00
2022-09-16T16:27:11.696Z,78.70
2022-09-16T16:29:39.906Z,79.20
2022-09-16T16:32:11.635Z,79.10
2022-09-16T16:34:42.733Z,78.90
2022-09-16T16:37:28.068Z,79.10
2022-09-16T16:40:01.384Z,78.80
2022-09-16T16:42:31.268Z,79.60
2022-09-16T16:44:59.566Z,80.00
2022-09-16T16:47:27.832Z,80.30
2022-09-16T16:49:56.095Z,79.60
2022-09-16T16:52:24.299Z,79.00
2022-09-16T16:54:52.669Z,79.50
2022-09-16T16:57:20.969Z,79.70
2022-09-16T16:59:51.914Z,80.00
2022-09-16T17:02:20.200Z,80.30
2022-09-16T17:04:48.533Z,80.30
2022-09-16T17:07:32.575Z,79.70
2022-09-16T17:10:01.011Z,79.70
2022-09-16T17:12:29.315Z,80.40
2022-09-16T17:14:59.117Z,79.80
2022-09-16T17:17:31.343Z,79.40
2022-09-16T17:20:00.459Z,78.80
2022-09-16T17:22:28.758Z,79.50
2022-09-16T17:24:57.185Z,80.10
2022-09-16T17:27:27.758Z,79.90
2022-09-16T17:29:56.108Z,79.50
2022-09-16T17:32:26.211Z,79.50
2022-09-16T17:34:54.483Z,80.10
2022-09-16T17:37:22.756Z,79.80
2022-09-16T17:39:51.166Z,79.50
2022-09-16T17:42:20.599Z,79.80
2022-09-16T17:44:48.930Z,79.00
2022-09-16T17:47:17.308Z,79.10
2022-09-16T17:49:47.274Z,79.40
2022-09-16T17:52:15.506Z,79.30
2022-09-16T17:54:44.357Z,79.40
2022-09-16T17:57:12.637Z,80.00
2022-09-16T17:59:40.846Z,80.20
2022-09-16T18:02:12.095Z,81.40
2022-09-16T18:04:42.972Z,82.60
2022-09-16T18:07:12.758Z,82.90
2022-09-16T18:09:41.077Z,83.40
2022-09-16T18:12:09.410Z,83.40
2022-09-16T18:14:37.881Z,83.40
2022-09-16T18:17:06.319Z,83.30
2022-09-16T18:19:34.717Z,83.30
2022-09-16T18:22:03.776Z,83.20
2022-09-16T18:24:33.434Z,82.80
2022-09-16T18:27:02.554Z,82.80
2022-09-16T18:29:31.498Z,82.90
2022-09-16T18:32:00.321Z,82.70
2022-09-16T18:34:33.253Z,82.00
2022-09-16T18:37:02.096Z,82.20
2022-09-16T18:39:30.509Z,81.50
2022-09-16T18:42:00.269Z,81.90
2022-09-16T18:44:28.942Z,81.80
2022-09-16T18:46:57.371Z,82.20
2022-09-16T18:49:27.095Z,81.80
2022-09-16T18:51:55.607Z,82.70
2022-09-16T18:54:28.124Z,82.10
2022-09-16T18:56:57.657Z,81.80
2022-09-16T18:59:29.137Z,82.30
2022-09-16T19:01:59.556Z,81.90
2022-09-16T19:04:30.886Z,82.40
2022-09-16T19:07:07.258Z,82.00
2022-09-16T19:09:37.519Z,82.10
2022-09-16T19:12:07.081Z,81.90
2022-09-16T19:14:36.663Z,82.90
2022-09-16T19:17:05.671Z,82.50
2022-09-16T19:19:34.767Z,82.80
2022-09-16T19:22:05.852Z,82.60
2022-09-16T19:24:35.266Z,83.20
2022-09-16T19:27:03.559Z,83.50
2022-09-16T19:29:32.666Z,83.50
2022-09-16T19:32:02.550Z,83.20
2022-09-16T19:34:30.958Z,83.70
2022-09-16T19:36:59.190Z,83.70
2022-09-16T19:39:28.155Z,84.00
2022-09-16T19:41:57.060Z,84.00
2022-09-16T19:44:25.434Z,83.80
2022-09-16T19:46:53.708Z,84.10
2022-09-16T19:49:23.868Z,84.00
2022-09-16T19:51:53.854Z,84.30
2022-09-16T19:54:24.117Z,84.00
2022-09-16T19:56:52.657Z,83.90
2022-09-16T19:59:22.225Z,84.10
2022-09-16T20:01:51.297Z,84.50
2022-09-16T20:04:21.105Z,84.60
2022-09-16T20:06:51.452Z,84.50
2022-09-16T20:09:20.377Z,84.40
2022-09-16T20:11:49.869Z,84.80
2022-09-16T20:14:20.076Z,85.00
2022-09-16T20:16:49.937Z,84.70
2022-09-16T20:19:20.477Z,85.00
2022-09-16T20:21:50.257Z,85.10
2022-09-16T20:24:21.245Z,85.40
2022-09-16T20:26:51.655Z,85.30
2022-09-16T20:29:21.104Z,85.40
2022-09-16T20:31:52.645Z,85.40
2022-09-16T20:34:24.244Z,85.20
2022-09-16T20:36:53.984Z,85.30
2022-09-16T20:39:22.847Z,85.30
2022-09-16T20:41:52.714Z,85.60
2022-09-16T20:44:21.109Z,85.70
2022-09-16T20:46:50.140Z,85.40
2022-09-16T20:49:22.930Z,85.60
2022-09-16T20:51:52.979Z,85.50
2022-09-16T20:54:21.247Z,85.80
2022-09-16T20:56:50.141Z,85.50
2022-09-16T20:59:20.371Z,85.70
2022-09-16T21:01:50.072Z,85.40
2022-09-16T21:04:20.795Z,85.70
2022-09-16T21:06:49.402Z,86.00
2022-09-16T21:09:19.391Z,85.30
2022-09-16T21:11:48.325Z,85.80
2022-09-16T21:14:18.042Z,85.70
2022-09-16T21:16:48.065Z,85.60
2022-09-16T21:19:17.943Z,86.10
2022-09-16T21:21:47.714Z,86.20
2022-09-16T21:24:18.291Z,86.00
2022-09-16T21:26:47.290Z,86.00
2022-09-16T21:29:21.195Z,86.30
2022-09-16T21:31:50.221Z,86.40
2022-09-16T21:34:20.722Z,86.20
2022-09-16T21:36:49.741Z,86.20
2022-09-16T21:39:21.866Z,86.20
2022-09-16T21:41:50.650Z,86.20
2022-09-16T21:44:19.845Z,86.40
2022-09-16T21:46:49.737Z,86.40
2022-09-16T21:49:23.264Z,86.60
2022-09-16T21:51:53.070Z,86.50
2022-09-16T21:54:23.536Z,86.50
2022-09-16T21:56:52.895Z,86.50
2022-09-16T21:59:21.690Z,86.40
2022-09-16T22:01:51.493Z,86.50
2022-09-16T22:04:22.674Z,86.30
2022-09-16T22:06:51.121Z,86.70
2022-09-16T22:09:19.911Z,86.60
2022-09-16T22:11:49.695Z,86.60
2022-09-16T22:14:18.581Z,87.00
2022-09-16T22:16:47.163Z,86.90
2022-09-16T22:19:17.711Z,87.00
2022-09-16T22:21:48.664Z,87.00
2022-09-16T22:24:20.345Z,86.90
2022-09-16T22:26:51.666Z,87.00
2022-09-16T22:29:20.061Z,87.00
2022-09-16T22:31:49.013Z,87.30
2022-09-16T22:34:17.686Z,87.30
2022-09-16T22:36:46.165Z,87.30
2022-09-16T22:39:16.609Z,87.30
2022-09-16T22:41:45.439Z,87.40
2022-09-16T22:44:15.684Z,87.70
2022-09-16T22:46:45.915Z,87.40
2022-09-16T22:49:15.409Z,87.50
2022-09-16T22:51:44.231Z,87.70
2022-09-16T22:54:14.341Z,87.80
2022-09-16T22:56:43.963Z,87.70
2022-09-16T22:59:20.994Z,87.90
2022-09-16T23:01:49.591Z,87.80
2022-09-16T23:04:18.287Z,87.70
2022-09-16T23:06:46.796Z,87.80
2022-09-16T23:09:15.615Z,87.90
2022-09-16T23:11:44.102Z,87.80
2022-09-16T23:14:15.854Z,87.80
2022-09-16T23:16:45.624Z,87.60
2022-09-16T23:19:13.852Z,87.60
2022-09-16T23:21:42.336Z,87.80
2022-09-16T23:24:17.220Z,87.80
2022-09-16T23:26:46.917Z,87.80
2022-09-16T23:29:18.294Z,87.80
2022-09-16T23:31:48.413Z,87.80
2022-09-16T23:34:20.934Z,87.80
2022-09-16T23:36:50.427Z,88.00
2022-09-16T23:39:19.160Z,87.80
2022-09-16T23:41:49.409Z,87.90
2022-09-16T23:44:18.727Z,88.00
2022-09-16T23:46:48.409Z,87.90
2022-09-16T23:49:20.277Z,88.10
2022-09-16T23:51:48.809Z,87.80
2022-09-16T23:54:17.579Z,88.00
2022-09-16T23:56:45.925Z,88.10
2022-09-16T23:59:14.260Z,88.20
